Time;durP1;ratioP1;P1;durP2;ratioP2;P2;SDS_P1;SDS_P2;PMS_P1;PMS_P2;Temp;Humidity;BMP_temperature;BMP_pressure;BME280_temperature;BME280_humidity;BME280_pressure;Samples;Min_cycle;Max_cycle;Signal;HPM_P1;HPM_P2
2022/12/03 00:00:15;;;;;;;28.02;13.40;;;;;;;1.39;100.00;102285.78;5072076;28;20048;-51
2022/12/03 00:02:43;;;;;;;25.83;13.55;;;;;;;1.30;100.00;102281.50;5071973;28;20529;-51
2022/12/03 00:05:11;;;;;;;26.58;12.52;;;;;;;1.33;100.00;102276.28;5071907;28;20058;-49
2022/12/03 00:07:40;;;;;;;27.58;12.77;;;;;;;1.35;100.00;102271.97;5072216;28;20067;-49
2022/12/03 00:10:11;;;;;;;29.60;13.32;;;;;;;1.46;100.00;102262.41;5072241;28;20090;-52
2022/12/03 00:12:42;;;;;;;25.90;12.98;;;;;;;1.38;100.00;102266.78;5072909;28;20345;-51
2022/12/03 00:15:11;;;;;;;28.80;13.38;;;;;;;1.42;100.00;102259.81;5075922;28;20052;-52
2022/12/03 00:17:39;;;;;;;28.63;14.10;;;;;;;1.42;100.00;102263.28;5075789;28;20559;-50
2022/12/03 00:20:08;;;;;;;31.85;13.85;;;;;;;1.44;100.00;102265.88;5075855;28;20111;-49
2022/12/03 00:22:39;;;;;;;27.35;13.05;;;;;;;1.45;100.00;102262.41;5075842;28;20048;-53
2022/12/03 00:25:09;;;;;;;28.67;14.07;;;;;;;1.38;100.00;102271.97;5075678;28;20043;-51
2022/12/03 00:27:38;;;;;;;25.77;13.25;;;;;;;1.43;100.00;102270.22;5075705;28;20036;-53
2022/12/03 00:30:09;;;;;;;30.00;15.13;;;;;;;1.37;100.00;102259.84;5075435;28;20049;-52
2022/12/03 00:32:37;;;;;;;29.07;14.53;;;;;;;1.44;100.00;102264.13;5075397;28;20056;-52
2022/12/03 00:35:06;;;;;;;27.55;13.45;;;;;;;1.46;100.00;102262.41;5075016;28;20507;-49
2022/12/03 00:37:34;;;;;;;28.52;13.77;;;;;;;1.40;100.00;102257.25;5073851;28;20099;-48
2022/12/03 00:40:03;;;;;;;26.77;14.40;;;;;;;1.41;100.00;102252.94;5071756;28;20071;-49
2022/12/03 00:42:31;;;;;;;27.98;14.27;;;;;;;1.42;100.00;102252.94;5073077;28;20052;-52
2022/12/03 00:45:00;;;;;;;28.83;14.35;;;;;;;1.37;100.00;102252.06;5074705;28;20041;-52
2022/12/03 00:47:29;;;;;;;29.83;14.05;;;;;;;1.36;100.00;102250.34;5074875;28;20089;-49
2022/12/03 00:49:57;;;;;;;30.95;13.82;;;;;;;1.43;100.00;102253.78;5075210;28;20483;-52
2022/12/03 00:52:27;;;;;;;28.98;14.27;;;;;;;1.40;100.00;102244.28;5074941;28;20065;-49
2022/12/03 00:54:55;;;;;;;27.23;14.32;;;;;;;1.37;100.00;102246.88;5075056;28;20053;-51
2022/12/03 00:57:23;;;;;;;27.17;13.95;;;;;;;1.39;100.00;102250.34;5074886;28;20503;-49
2022/12/03 00:59:51;;;;;;;29.00;14.55;;;;;;;1.41;100.00;102246.00;5074937;28;20414;-51
2022/12/03 01:02:19;;;;;;;28.52;14.45;;;;;;;1.36;100.00;102255.53;5074878;28;20044;-51
2022/12/03 01:04:49;;;;;;;30.35;14.82;;;;;;;1.42;100.00;102252.03;5074982;28;20549;-50
2022/12/03 01:07:18;;;;;;;29.27;14.35;;;;;;;1.41;100.00;102252.94;5074572;28;20043;-51
2022/12/03 01:09:46;;;;;;;32.20;15.38;;;;;;;1.39;100.00;102257.25;5074315;28;20169;-56
2022/12/03 01:12:15;;;;;;;32.60;14.43;;;;;;;1.34;100.00;102252.94;5074496;28;20079;-50
2022/12/03 01:14:43;;;;;;;32.83;16.27;;;;;;;1.37;100.00;102243.44;5073205;28;20139;-49
2022/12/03 01:17:12;;;;;;;31.33;14.20;;;;;;;1.38;100.00;102242.56;5070514;28;20103;-51
2022/12/03 01:19:40;;;;;;;30.58;15.75;;;;;;;1.32;100.00;102249.50;5072131;28;20473;-50
2022/12/03 01:22:16;;;;;;;32.42;17.08;;;;;;;1.40;100.00;102248.59;5074357;28;20556;-57
2022/12/03 01:24:44;;;;;;;31.45;15.52;;;;;;;1.40;100.00;102249.47;5073317;28;20106;-58
2022/12/03 01:27:12;;;;;;;30.25;14.60;;;;;;;1.48;100.00;102246.84;5074333;28;20045;-57
2022/12/03 01:29:40;;;;;;;29.33;14.50;;;;;;;1.39;100.00;102239.09;5069569;28;20044;-58
2022/12/03 01:32:18;;;;;;;30.88;15.05;;;;;;;1.35;100.00;102233.09;5071132;28;20118;-57
2022/12/03 01:34:48;;;;;;;31.10;15.15;;;;;;;1.44;100.00;102245.97;5074521;28;20041;-51
2022/12/03 01:37:19;;;;;;;35.67;16.70;;;;;;;1.45;100.00;102239.94;5074206;28;20111;-49
2022/12/03 01:39:47;;;;;;;33.10;15.80;;;;;;;1.38;100.00;102239.97;5074327;28;20052;-50
2022/12/03 01:42:18;;;;;;;32.25;16.30;;;;;;;1.41;100.00;102239.97;5074395;28;20102;-48
2022/12/03 01:44:47;;;;;;;32.60;16.00;;;;;;;1.42;100.00;102237.38;5074087;28;20052;-52
2022/12/03 01:47:17;;;;;;;33.50;16.30;;;;;;;1.42;100.00;102226.13;5074198;28;20049;-51
2022/12/03 01:49:50;;;;;;;32.47;15.75;;;;;;;1.41;100.00;102235.63;5074167;28;20037;-50
2022/12/03 01:52:22;;;;;;;31.73;15.70;;;;;;;1.47;100.00;102233.03;5074091;28;20048;-58
2022/12/03 01:54:54;;;;;;;32.63;15.00;;;;;;;1.49;100.00;102226.09;5073932;28;20099;-51
2022/12/03 01:57:26;;;;;;;34.33;15.70;;;;;;;1.48;100.00;102234.72;5073642;28;20056;-59
2022/12/03 01:59:56;;;;;;;33.72;15.07;;;;;;;1.38;100.00;102225.28;5073814;28;20122;-59
2022/12/03 02:02:26;;;;;;;30.23;14.80;;;;;;;1.42;100.00;102227.00;5073644;28;20525;-49
2022/12/03 02:04:54;;;;;;;34.95;15.90;;;;;;;1.46;100.00;102230.41;5073466;28;20102;-50
2022/12/03 02:07:27;;;;;;;34.08;15.73;;;;;;;1.51;100.00;102231.25;5070120;28;20040;-51
2022/12/03 02:09:58;;;;;;;34.80;16.20;;;;;;;1.50;100.00;102225.22;5070273;28;20059;-57
2022/12/03 02:12:29;;;;;;;33.58;16.10;;;;;;;1.47;100.00;102230.44;5071941;28;20036;-58
2022/12/03 02:14:58;;;;;;;34.03;15.93;;;;;;;1.47;100.00;102225.25;5068825;28;20045;-58
2022/12/03 02:17:27;;;;;;;29.35;14.93;;;;;;;1.51;100.00;102226.06;5069714;28;20064;-51
2022/12/03 02:19:56;;;;;;;34.42;15.60;;;;;;;1.51;100.00;102226.97;5072048;28;20064;-51
2022/12/03 02:22:35;;;;;;;30.42;15.30;;;;;;;1.58;100.00;102224.31;5073425;28;20450;-48
2022/12/03 02:25:11;;;;;;;30.48;14.82;;;;;;;1.64;100.00;102221.69;5073230;28;20102;-51
2022/12/03 02:27:40;;;;;;;33.40;15.48;;;;;;;1.52;100.00;102227.81;5073364;28;20048;-51
2022/12/03 02:30:09;;;;;;;31.45;15.80;;;;;;;1.57;100.00;102226.06;5073242;28;20102;-51
2022/12/03 02:32:38;;;;;;;33.75;16.25;;;;;;;1.55;100.00;102226.94;5072929;28;20072;-52
2022/12/03 02:35:12;;;;;;;32.35;15.30;;;;;;;1.48;100.00;102229.53;5072881;28;20090;-58
2022/12/03 02:37:42;;;;;;;30.95;15.93;;;;;;;1.43;100.00;102218.34;5072945;28;20410;-58
2022/12/03 02:40:16;;;;;;;32.38;15.90;;;;;;;1.47;100.00;102222.66;5069546;28;20048;-58
2022/12/03 02:42:45;;;;;;;29.13;14.07;;;;;;;1.52;100.00;102222.63;5070636;28;20045;-58
2022/12/03 02:45:18;;;;;;;30.55;14.85;;;;;;;1.54;100.00;102215.72;5069347;28;20473;-58
2022/12/03 02:47:50;;;;;;;29.23;15.35;;;;;;;1.50;100.00;102214.84;5070032;28;20490;-58
2022/12/03 02:50:21;;;;;;;29.10;14.18;;;;;;;1.45;100.00;102221.78;5068933;28;20041;-58
2022/12/03 02:52:53;;;;;;;29.30;15.43;;;;;;;1.51;100.00;102211.41;5072249;28;20055;-57
2022/12/03 02:55:24;;;;;;;31.13;15.27;;;;;;;1.47;100.00;102214.00;5068672;28;20040;-58
2022/12/03 02:57:52;;;;;;;29.92;13.93;;;;;;;1.45;100.00;102208.81;5069723;28;20514;-58
2022/12/03 03:00:21;;;;;;;27.23;13.93;;;;;;;1.48;100.00;102216.56;5067046;28;20079;-58
2022/12/03 03:02:50;;;;;;;28.13;14.13;;;;;;;1.45;100.00;102216.59;5072597;28;20047;-57
2022/12/03 03:05:21;;;;;;;28.75;15.68;;;;;;;1.50;100.00;102211.38;5072628;28;20113;-57
2022/12/03 03:07:50;;;;;;;29.20;14.43;;;;;;;1.45;100.00;102221.78;5072219;28;20040;-48
2022/12/03 03:10:23;;;;;;;24.73;12.63;;;;;;;1.56;100.00;102220.88;5069342;28;20053;-58
2022/12/03 03:12:54;;;;;;;26.80;13.07;;;;;;;1.44;100.00;102214.88;5069309;28;20063;-58
2022/12/03 03:15:23;;;;;;;25.67;13.93;;;;;;;1.48;100.00;102198.44;5071549;28;20518;-57
2022/12/03 03:17:52;;;;;;;27.95;13.75;;;;;;;1.43;100.00;102209.69;5072139;28;20040;-57
2022/12/03 03:20:20;;;;;;;25.13;13.60;;;;;;;1.36;100.00;102211.47;5071179;28;20123;-59
2022/12/03 03:22:48;;;;;;;26.52;13.77;;;;;;;1.38;100.00;102214.91;5069302;28;20048;-58
2022/12/03 03:25:21;;;;;;;25.33;13.18;;;;;;;1.34;100.00;102208.03;5070542;28;20053;-52
2022/12/03 03:27:50;;;;;;;;;;;;;;;1.34;100.00;102213.22;5072811;28;20186;-51
2022/12/03 03:30:19;;;;;;;25.30;12.30;;;;;;;1.35;100.00;102212.34;5067076;28;19930;-50
2022/12/03 03:32:50;;;;;;;27.20;14.00;;;;;;;1.29;100.00;102210.63;5068034;28;20087;-53
2022/12/03 03:35:18;;;;;;;25.05;12.32;;;;;;;1.35;100.00;102204.56;5070495;28;20099;-52
2022/12/03 03:37:46;;;;;;;25.77;13.70;;;;;;;1.35;100.00;102208.00;5072243;28;20098;-51
2022/12/03 03:40:14;;;;;;;25.45;12.55;;;;;;;1.40;100.00;102207.97;5072082;28;20106;-49
2022/12/03 03:42:42;;;;;;;24.33;13.23;;;;;;;1.42;100.00;102201.06;5071020;28;20071;-53
2022/12/03 03:45:12;;;;;;;26.15;13.77;;;;;;;1.44;100.00;102194.13;5072220;28;20048;-50
2022/12/03 03:47:41;;;;;;;24.17;12.88;;;;;;;1.41;100.00;102199.34;5072983;28;20483;-55
2022/12/03 03:50:12;;;;;;;30.10;14.88;;;;;;;1.33;100.00;102191.59;5076303;28;20049;-49
2022/12/03 03:52:41;;;;;;;30.13;14.73;;;;;;;1.34;100.00;102187.28;5076343;28;20044;-50
2022/12/03 03:55:10;;;;;;;26.02;13.93;;;;;;;1.35;100.00;102189.00;5075636;28;20047;-50
2022/12/03 03:57:39;;;;;;;29.77;14.25;;;;;;;1.27;100.00;102185.56;5072481;28;20049;-51
2022/12/03 04:00:10;;;;;;;26.85;13.75;;;;;;;1.30;100.00;102185.56;5073256;28;20056;-48
2022/12/03 04:02:41;;;;;;;27.90;13.18;;;;;;;1.30;100.00;102190.75;5075982;28;20446;-51
2022/12/03 04:05:15;;;;;;;26.10;14.90;;;;;;;1.31;100.00;102187.28;5076193;28;20048;-49
2022/12/03 04:07:43;;;;;;;30.35;13.98;;;;;;;1.27;100.00;102190.75;5076102;28;20495;-52
2022/12/03 04:12:59;;;;;;;25.92;11.90;;;;;;;1.32;100.00;102191.59;5075491;28;20048;-49
2022/12/03 04:15:30;;;;;;;25.52;13.38;;;;;;;1.25;100.00;102187.31;5075181;28;20041;-52
2022/12/03 04:20:45;;;;;;;26.65;12.75;;;;;;;1.18;100.00;102187.34;5075739;28;20064;-49
2022/12/03 04:23:12;;;;;;;29.67;14.02;;;;;;;1.17;100.00;102188.22;5075641;28;20051;-47
2022/12/03 04:36:43;;;;;;;27.63;14.02;;;;;;;1.20;100.00;102184.78;5071692;28;20044;-48
2022/12/03 04:39:12;;;;;;;32.00;15.63;;;;;;;1.21;100.00;102180.44;5075311;28;20060;-48
2022/12/03 04:41:40;;;;;;;31.85;15.25;;;;;;;1.19;100.00;102177.84;5075369;28;20045;-50
2022/12/03 04:46:53;;;;;;;31.98;14.48;;;;;;;1.24;100.00;102175.22;5075103;28;20049;-48
2022/12/03 04:49:23;;;;;;;30.77;14.38;;;;;;;1.21;100.00;102180.44;5071666;28;20044;-50
2022/12/03 04:51:51;;;;;;;33.65;14.23;;;;;;;1.16;100.00;102180.47;5071637;28;20059;-51
2022/12/03 04:54:19;;;;;;;27.20;14.90;;;;;;;1.13;100.00;102175.28;5071475;28;20123;-52
2022/12/03 04:56:47;;;;;;;29.30;15.43;;;;;;;1.14;100.00;102185.63;5071365;28;20088;-49
2022/12/03 04:59:16;;;;;;;32.50;15.80;;;;;;;1.15;100.00;102182.19;5073743;28;20045;-50
2022/12/03 05:01:45;;;;;;;30.67;15.13;;;;;;;1.12;100.00;102171.84;5075024;28;20114;-48
2022/12/03 05:04:14;;;;;;;28.75;13.57;;;;;;;1.11;100.00;102184.81;5075094;28;20059;-52
2022/12/03 05:06:43;;;;;;;33.35;15.60;;;;;;;1.20;100.00;102176.09;5074907;28;20068;-50
2022/12/03 05:09:12;;;;;;;31.52;15.70;;;;;;;1.16;100.00;102178.72;5074461;28;20547;-46
2022/12/03 05:11:41;;;;;;;31.33;15.27;;;;;;;1.15;100.00;102179.59;5074346;28;20048;-51
2022/12/03 05:14:10;;;;;;;32.35;16.40;;;;;;;1.24;100.00;102176.09;5074781;28;20052;-50
2022/12/03 05:16:38;;;;;;;33.92;15.13;;;;;;;1.20;100.00;102170.94;5073836;28;20419;-48
2022/12/03 05:19:09;;;;;;;31.98;14.98;;;;;;;1.13;100.00;102173.56;5074432;28;20052;-49
2022/12/03 05:21:36;;;;;;;29.90;14.88;;;;;;;1.17;100.00;102172.69;5074449;28;20048;-49
2022/12/03 05:24:06;;;;;;;30.10;15.00;;;;;;;1.20;100.00;102170.94;5073701;28;20048;-53
2022/12/03 05:26:34;;;;;;;33.42;16.45;;;;;;;1.20;100.00;102170.94;5074309;28;20514;-48
2022/12/03 05:29:20;;;;;;;36.90;16.25;;;;;;;1.14;100.00;102164.03;5051426;28;20055;-50
2022/12/03 05:31:48;;;;;;;31.30;16.33;;;;;;;1.15;100.00;102171.81;5074283;28;20057;-52
2022/12/03 05:34:16;;;;;;;30.15;16.02;;;;;;;1.11;100.00;102159.75;5071496;28;20064;-57
2022/12/03 05:36:45;;;;;;;33.60;15.57;;;;;;;1.22;100.00;102166.63;5070368;28;20101;-58
2022/12/03 05:39:14;;;;;;;30.77;15.20;;;;;;;1.12;100.00;102163.22;5073477;28;20044;-57
2022/12/03 05:44:36;;;;;;;31.52;14.55;;;;;;;1.18;100.00;102152.78;5026312;28;20522;-57
2022/12/03 05:47:05;;;;;;;30.45;15.35;;;;;;;1.10;100.00;102157.16;5070955;28;20052;-57
2022/12/03 05:49:33;;;;;;;30.63;14.73;;;;;;;1.10;100.00;102155.41;5069655;28;20098;-57
2022/12/03 05:52:01;;;;;;;30.02;15.15;;;;;;;1.11;100.00;102148.53;5070504;28;20043;-57
2022/12/03 05:54:30;;;;;;;31.80;15.48;;;;;;;1.11;100.00;102148.53;5071044;28;20044;-52
2022/12/03 05:56:59;;;;;;;31.73;14.38;;;;;;;1.09;100.00;102155.44;5073665;28;20380;-49
2022/12/03 05:59:27;;;;;;;30.40;15.05;;;;;;;1.07;100.00;102157.19;5072650;28;20047;-58
2022/12/03 06:01:55;;;;;;;30.75;15.60;;;;;;;1.01;100.00;102156.31;5074023;28;20051;-58
2022/12/03 06:04:23;;;;;;;31.23;15.00;;;;;;;1.09;100.00;102151.13;5069882;28;20487;-57
2022/12/03 06:06:51;;;;;;;32.65;16.00;;;;;;;1.10;100.00;102152.81;5070908;28;20048;-58
2022/12/03 06:09:19;;;;;;;29.55;15.95;;;;;;;1.11;100.00;102148.53;5073711;28;20415;-57
2022/12/03 06:11:52;;;;;;;33.13;14.95;;;;;;;1.09;100.00;102155.44;5071209;28;20064;-57
2022/12/03 06:14:20;;;;;;;32.25;15.98;;;;;;;1.05;100.00;102149.41;5069484;28;20056;-58
2022/12/03 06:16:48;;;;;;;32.10;15.23;;;;;;;1.13;100.00;102150.25;5067108;28;20558;-58
2022/12/03 06:19:16;;;;;;;33.60;16.60;;;;;;;1.07;100.00;102145.06;5070267;28;20037;-58
2022/12/03 06:21:47;;;;;;;33.35;16.23;;;;;;;1.08;100.00;102148.50;5073397;28;20672;-59
2022/12/03 06:24:16;;;;;;;31.30;15.25;;;;;;;1.02;100.00;102131.28;5071920;28;20048;-58
2022/12/03 06:26:44;;;;;;;31.42;15.05;;;;;;;1.06;100.00;102132.97;5072635;28;20498;-58
2022/12/03 06:29:13;;;;;;;31.35;14.98;;;;;;;1.11;100.00;102130.38;5072488;28;20050;-57
2022/12/03 06:31:41;;;;;;;30.23;14.73;;;;;;;1.03;100.00;102138.19;5068660;28;20384;-53
2022/12/03 06:34:10;;;;;;;30.90;14.95;;;;;;;1.02;100.00;102136.44;5070205;28;20049;-58
2022/12/03 06:36:38;;;;;;;30.88;14.07;;;;;;;1.03;100.00;102135.59;5072842;28;20080;-58
2022/12/03 06:39:06;;;;;;;32.30;13.57;;;;;;;0.96;100.00;102128.72;5073043;28;20080;-58
2022/12/03 06:41:34;;;;;;;32.50;15.25;;;;;;;0.91;100.00;102133.06;5072947;28;20072;-59
2022/12/03 06:44:02;;;;;;;31.25;14.82;;;;;;;0.92;100.00;102129.59;5068246;28;20507;-58
2022/12/03 06:46:32;;;;;;;29.35;13.82;;;;;;;0.95;100.00;102127.84;5068256;28;20056;-58
2022/12/03 06:49:00;;;;;;;29.75;13.75;;;;;;;0.95;100.00;102135.63;5071662;28;20044;-58
2022/12/03 06:51:28;;;;;;;31.75;14.18;;;;;;;0.90;100.00;102132.22;5070267;28;20037;-59
2022/12/03 06:53:57;;;;;;;29.23;12.73;;;;;;;0.86;100.00;102125.31;5069515;28;20044;-58
2022/12/03 06:56:25;;;;;;;38.65;15.57;;;;;;;0.88;100.00;102125.31;5068620;28;20139;-58
2022/12/03 06:59:01;;;;;;;30.25;14.10;;;;;;;0.98;100.00;102119.19;5072702;28;20063;-49
2022/12/03 07:01:29;;;;;;;30.42;13.40;;;;;;;0.97;100.00;102118.34;5071516;28;20052;-57
2022/12/03 07:03:59;;;;;;;34.85;15.38;;;;;;;0.98;100.00;102121.78;5070725;28;20090;-58
2022/12/03 07:06:27;;;;;;;33.90;15.80;;;;;;;0.86;100.00;102127.03;5068583;28;20060;-57
2022/12/03 07:08:55;;;;;;;43.28;16.65;;;;;;;0.88;100.00;102122.72;5072587;28;20395;-57
2022/12/03 07:11:38;;;;;;;34.30;15.38;;;;;;;0.88;100.00;102130.50;5072524;28;20045;-49
2022/12/03 07:14:09;;;;;;;33.83;15.32;;;;;;;0.91;100.00;102138.25;5072511;28;20044;-50
2022/12/03 07:16:38;;;;;;;35.28;14.63;;;;;;;0.90;100.00;102139.09;5072532;28;20127;-49
2022/12/03 07:19:08;;;;;;;35.13;16.08;;;;;;;1.00;100.00;102138.19;5072173;28;20384;-51
2022/12/03 07:21:36;;;;;;;34.90;15.65;;;;;;;0.96;100.00;102137.34;5071964;28;20048;-49
2022/12/03 07:24:05;;;;;;;39.13;17.70;;;;;;;0.89;100.00;102140.00;5071894;28;20098;-47
2022/12/03 07:26:33;;;;;;;39.00;16.45;;;;;;;0.95;100.00;102134.75;5072304;28;20119;-52
2022/12/03 07:29:01;;;;;;;40.90;17.50;;;;;;;1.03;100.00;102138.19;5072403;28;20052;-48
2022/12/03 07:31:29;;;;;;;38.72;17.33;;;;;;;0.98;100.00;102147.69;5072337;28;20040;-51
2022/12/03 07:33:58;;;;;;;37.92;16.48;;;;;;;0.91;100.00;102139.09;5072357;28;20389;-49
2022/12/03 07:36:27;;;;;;;38.08;16.88;;;;;;;0.92;100.00;102140.81;5072204;28;20453;-49
2022/12/03 07:38:55;;;;;;;39.25;16.42;;;;;;;0.98;100.00;102146.00;5072191;28;20044;-52
2022/12/03 07:41:23;;;;;;;42.13;17.13;;;;;;;0.95;100.00;102152.91;5071791;28;20037;-54
2022/12/03 07:43:51;;;;;;;42.30;16.70;;;;;;;0.88;100.00;102149.47;5071949;28;20407;-49
2022/12/03 07:46:20;;;;;;;39.50;17.25;;;;;;;0.91;100.00;102153.78;5071871;28;20503;-51
2022/12/03 07:48:48;;;;;;;43.38;16.70;;;;;;;0.87;100.00;102149.47;5072129;28;20041;-50
2022/12/03 07:51:16;;;;;;;44.00;16.60;;;;;;;0.90;100.00;102150.34;5072478;28;20053;-51
2022/12/03 07:53:46;;;;;;;38.58;16.63;;;;;;;0.90;100.00;102152.03;5072464;28;20069;-50
2022/12/03 07:56:14;;;;;;;41.40;16.13;;;;;;;0.92;100.00;102155.50;5072282;28;20511;-49
2022/12/03 07:58:42;;;;;;;34.38;16.42;;;;;;;0.90;100.00;102152.03;5072990;28;20052;-59
2022/12/03 08:01:11;;;;;;;39.03;16.60;;;;;;;1.01;100.00;102155.47;5071607;28;20510;-56
2022/12/03 08:03:41;;;;;;;39.00;17.50;;;;;;;0.87;100.00;102152.91;5068257;28;20135;-57
2022/12/03 08:06:10;;;;;;;44.35;18.17;;;;;;;0.94;100.00;102153.75;5070179;28;20446;-59
2022/12/03 08:08:38;;;;;;;46.00;19.08;;;;;;;0.86;100.00;102150.34;5069537;28;20426;-59
2022/12/03 08:11:13;;;;;;;48.90;21.20;;;;;;;0.83;100.00;102151.22;5068098;28;20491;-56
2022/12/03 08:13:41;;;;;;;46.55;19.83;;;;;;;0.88;100.00;102148.63;5068155;28;20045;-56
2022/12/03 08:16:16;;;;;;;47.85;20.13;;;;;;;0.87;100.00;102152.91;5066380;28;20046;-57
2022/12/03 08:18:45;;;;;;;47.45;20.23;;;;;;;0.93;100.00;102149.47;5068304;28;20044;-57
2022/12/03 08:21:17;;;;;;;46.45;20.00;;;;;;;0.92;100.00;102147.75;5066163;28;20049;-57
2022/12/03 08:23:45;;;;;;;41.92;18.17;;;;;;;0.83;100.00;102152.09;5068314;28;20045;-56
2022/12/03 08:26:22;;;;;;;45.58;18.13;;;;;;;0.83;100.00;102149.50;5071818;28;20052;-57
2022/12/03 08:28:50;;;;;;;43.58;18.10;;;;;;;0.87;100.00;102146.88;5071899;28;20439;-58
2022/12/03 08:31:22;;;;;;;44.00;17.60;;;;;;;0.80;100.00;102152.06;5069545;28;20052;-57
2022/12/03 08:34:16;;;;;;;42.90;18.00;;;;;;;0.81;100.00;102151.22;5070137;28;20062;-57
2022/12/03 08:36:44;;;;;;;46.85;17.42;;;;;;;0.84;100.00;102161.56;5075358;28;20070;-57
2022/12/03 08:39:29;;;;;;;44.63;17.05;;;;;;;0.76;100.00;102146.94;5073795;28;20048;-56
2022/12/03 08:44:59;;;;;;;38.03;15.27;;;;;;;0.77;100.00;102146.06;5070355;28;20053;-47
2022/12/03 08:47:29;;;;;;;35.67;15.45;;;;;;;0.70;100.00;102153.00;5072738;28;20074;-56
2022/12/03 08:50:06;;;;;;;42.28;15.13;;;;;;;0.76;100.00;102146.94;5075222;28;20103;-57
2022/12/03 08:52:34;;;;;;;37.38;15.63;;;;;;;0.78;100.00;102151.25;5074982;28;20519;-57
2022/12/03 08:55:28;;;;;;;36.75;15.07;;;;;;;0.82;100.00;102142.59;5071644;28;20048;-53
2022/12/03 08:57:58;;;;;;;36.67;14.93;;;;;;;0.84;100.00;102140.84;5072418;28;20519;-52
2022/12/03 09:00:26;;;;;;;35.45;14.18;;;;;;;0.86;100.00;102142.56;5074736;28;20044;-50
2022/12/03 09:03:00;;;;;;;38.30;15.68;;;;;;;0.88;100.00;102136.50;5075054;28;20047;-51
2022/12/03 09:05:32;;;;;;;36.72;14.93;;;;;;;0.93;100.00;102137.38;5075142;28;20051;-52
2022/12/03 09:08:00;;;;;;;35.33;14.68;;;;;;;0.84;100.00;102139.97;5074904;28;20048;-49
2022/12/03 09:10:28;;;;;;;37.45;14.57;;;;;;;0.81;100.00;102130.50;5074973;28;20102;-48
2022/12/03 09:12:58;;;;;;;38.75;15.02;;;;;;;0.81;100.00;102135.69;5075159;28;20036;-49
2022/12/03 09:15:27;;;;;;;32.80;14.77;;;;;;;0.82;100.00;102134.81;5074742;28;20573;-50
2022/12/03 09:17:55;;;;;;;38.28;16.17;;;;;;;0.86;100.00;102135.69;5074845;28;20044;-50
2022/12/03 09:20:23;;;;;;;43.75;17.25;;;;;;;0.92;100.00;102137.38;5073317;28;20114;-49
2022/12/03 09:22:51;;;;;;;44.92;17.90;;;;;;;0.89;100.00;102130.47;5074587;28;20445;-49
2022/12/03 09:25:19;;;;;;;44.90;18.30;;;;;;;0.95;100.00;102127.00;5074991;28;20116;-49
2022/12/03 09:27:48;;;;;;;40.78;17.15;;;;;;;0.98;100.00;102138.22;5074515;28;20056;-52
2022/12/03 09:30:18;;;;;;;42.78;17.70;;;;;;;0.93;100.00;102133.94;5074535;28;20037;-49
2022/12/03 09:32:46;;;;;;;40.53;17.27;;;;;;;1.00;100.00;102138.19;5074348;28;20041;-52
2022/12/03 09:35:14;;;;;;;43.75;18.33;;;;;;;0.92;100.00;102142.56;5074483;28;20057;-49
2022/12/03 09:37:42;;;;;;;40.95;16.60;;;;;;;0.83;100.00;102144.31;5074259;28;20103;-49
2022/12/03 09:40:12;;;;;;;42.55;16.88;;;;;;;0.87;100.00;102142.56;5074409;28;20568;-47
2022/12/03 09:42:41;;;;;;;41.10;16.30;;;;;;;0.89;100.00;102148.59;5073987;28;20053;-51
2022/12/03 09:45:13;;;;;;;34.47;14.40;;;;;;;0.77;100.00;102140.88;5072840;28;20079;-49
2022/12/03 09:47:46;;;;;;;34.47;14.88;;;;;;;0.75;100.00;102140.91;5073831;28;20106;-49
2022/12/03 09:50:16;;;;;;;34.38;14.00;;;;;;;0.67;100.00;102138.31;5073595;28;20510;-51
2022/12/03 09:52:45;;;;;;;37.05;15.77;;;;;;;0.76;100.00;102139.16;5073986;28;20045;-51
2022/12/03 09:55:18;;;;;;;38.28;14.93;;;;;;;0.79;100.00;102134.84;5073881;28;20083;-52
2022/12/03 09:57:46;;;;;;;30.65;13.00;;;;;;;0.91;100.00;102133.06;5072726;28;20094;-51
2022/12/03 10:00:17;;;;;;;35.42;13.45;;;;;;;0.86;100.00;102134.78;5073898;28;20055;-50
2022/12/03 10:02:47;;;;;;;36.65;14.48;;;;;;;0.81;100.00;102120.13;5072544;28;20436;-49
2022/12/03 10:05:19;;;;;;;38.63;15.05;;;;;;;0.77;100.00;102128.78;5071757;28;20044;-49
2022/12/03 10:07:48;;;;;;;36.85;14.50;;;;;;;0.81;100.00;102120.13;5070213;28;20048;-48
2022/12/03 10:10:18;;;;;;;36.45;15.43;;;;;;;0.81;100.00;102125.31;5069389;28;20048;-50
2022/12/03 10:12:46;;;;;;;40.20;14.82;;;;;;;0.81;100.00;102125.31;5071536;28;20045;-57
2022/12/03 10:15:16;;;;;;;36.10;15.05;;;;;;;0.75;100.00;102122.78;5073594;28;20102;-57
2022/12/03 10:17:47;;;;;;;37.95;15.05;;;;;;;0.80;100.00;102122.72;5073983;28;20044;-57
2022/12/03 10:20:18;;;;;;;37.97;14.20;;;;;;;0.85;100.00;102131.34;5073490;28;20106;-58
2022/12/03 10:22:47;;;;;;;34.28;14.32;;;;;;;0.75;100.00;102125.34;5073230;28;20049;-57
2022/12/03 10:25:18;;;;;;;43.25;16.75;;;;;;;0.57;100.00;102120.22;5072211;28;20094;-57
2022/12/03 10:27:56;;;;;;;38.20;14.70;;;;;;;0.56;100.00;102115.91;5070109;28;20056;-57
2022/12/03 10:30:27;;;;;;;38.22;13.95;;;;;;;0.56;100.00;102111.59;5071855;28;20068;-58
2022/12/03 10:33:01;;;;;;;36.50;14.32;;;;;;;0.57;100.00;102113.31;5072976;28;20044;-57
2022/12/03 10:35:37;;;;;;;32.77;13.43;;;;;;;0.61;100.00;102111.59;5069615;28;20052;-57
2022/12/03 10:38:07;;;;;;;38.95;14.20;;;;;;;0.62;100.00;102101.22;5069640;28;20453;-57
2022/12/03 10:40:37;;;;;;;39.13;14.85;;;;;;;0.70;100.00;102103.78;5069582;28;20106;-57
2022/12/03 10:43:20;;;;;;;36.75;15.82;;;;;;;0.66;100.00;102102.06;5073113;28;20040;-56
2022/12/03 10:45:49;;;;;;;38.53;14.50;;;;;;;0.62;100.00;102103.81;5072810;28;20052;-50
2022/12/03 10:48:24;;;;;;;34.75;14.52;;;;;;;0.67;100.00;102096.88;5071466;28;20055;-57
2022/12/03 10:50:54;;;;;;;39.88;15.02;;;;;;;0.70;100.00;102092.56;5069522;28;20079;-57
2022/12/03 10:53:27;;;;;;;34.97;14.65;;;;;;;0.67;100.00;102083.94;5068964;28;20049;-57
2022/12/03 10:55:58;;;;;;;42.08;16.25;;;;;;;0.64;100.00;102088.25;5069390;28;20048;-58
2022/12/03 10:58:29;;;;;;;34.20;13.98;;;;;;;0.63;100.00;102079.63;5072669;28;20526;-58
2022/12/03 11:00:58;;;;;;;37.75;14.50;;;;;;;0.58;100.00;102065.84;5072533;28;20461;-53
2022/12/03 11:03:30;;;;;;;33.42;13.57;;;;;;;0.66;100.00;102064.09;5072905;28;20044;-50
2022/12/03 11:06:01;;;;;;;33.35;13.10;;;;;;;0.63;100.00;102061.50;5072712;28;20543;-49
2022/12/03 11:08:34;;;;;;;33.03;12.95;;;;;;;0.65;100.00;102056.31;5072521;28;20071;-48
2022/12/03 11:11:04;;;;;;;37.15;14.07;;;;;;;0.62;100.00;102069.28;5072582;28;20044;-47
2022/12/03 11:13:51;;;;;;;34.60;14.95;;;;;;;0.63;100.00;102058.06;5072512;28;20036;-49
2022/12/03 11:16:58;;;;;;;36.85;13.95;;;;;;;0.65;100.00;102051.16;5072617;28;20463;-50
2022/12/03 11:22:44;;;;;;;34.72;13.30;;;;;;;0.56;100.00;102044.28;5132505;27;24571;-51
2022/12/03 11:25:44;;;;;;;35.08;13.23;;;;;;;0.58;100.00;102044.28;5085872;28;20052;-51
2022/12/03 11:28:37;;;;;;;33.08;12.80;;;;;;;0.60;100.00;102032.16;5085695;28;20119;-48
2022/12/03 11:31:11;;;;;;;35.58;14.00;;;;;;;0.58;100.00;102029.59;5084639;28;20526;-50
2022/12/03 11:33:40;;;;;;;36.50;13.80;;;;;;;0.60;100.00;102027.00;5086666;28;20131;-52
2022/12/03 11:36:15;;;;;;;35.53;12.77;;;;;;;0.60;100.00;102027.00;5087102;28;20042;-51
2022/12/03 11:38:56;;;;;;;36.13;14.27;;;;;;;0.73;100.00;102033.84;5088811;28;20056;-52
2022/12/03 11:41:27;;;;;;;38.67;14.23;;;;;;;0.63;100.00;102027.00;5089308;28;20040;-49
2022/12/03 11:44:30;;;;;;;36.13;14.43;;;;;;;0.69;100.00;102026.97;5088972;28;20052;-52
2022/12/03 11:47:12;;;;;;;30.97;14.10;;;;;;;0.71;100.00;102025.22;5085687;28;20087;-51
2022/12/03 11:49:48;;;;;;;36.33;13.38;;;;;;;0.67;100.00;102018.34;5088996;28;20040;-50
2022/12/03 11:52:29;;;;;;;35.33;14.52;;;;;;;0.63;100.00;102020.09;5089458;28;20082;-51